Time;durP1;ratioP1;P1;durP2;ratioP2;P2;SDS_P1;SDS_P2;PMS_P1;PMS_P2;Temp;Humidity;BMP_temperature;BMP_pressure;BME280_temperature;BME280_humidity;BME280_pressure;Samples;Min_cycle;Max_cycle;Signal;HPM_P1;HPM_P2
2021/12/27 00:00:23;;;;;;;3.90;3.30;;;9.90;95.80;;;10.41;68.31;97565.56;4889603;28;124735;-87
2021/12/27 00:02:55;;;;;;;3.47;3.00;;;9.90;95.80;;;10.43;68.02;97549.47;4876409;28;118573;-88
2021/12/27 00:05:24;;;;;;;3.60;3.03;;;9.90;95.80;;;10.43;68.50;97554.19;4879609;28;118615;-87
2021/12/27 00:07:52;;;;;;;4.13;3.70;;;9.90;95.80;;;10.45;68.43;97547.16;4894656;28;124249;-85
2021/12/27 00:10:24;;;;;;;4.20;3.40;;;9.90;95.80;;;10.47;68.18;97561.41;4892278;28;122862;-90
2021/12/27 00:13:09;;;;;;;4.33;3.90;;;9.90;95.80;;;10.50;68.29;97546.91;4873693;28;120372;-88
2021/12/27 00:15:39;;;;;;;5.60;4.07;;;10.30;95.50;;;10.50;68.23;97543.34;4885465;28;119560;-88
2021/12/27 00:18:06;;;;;;;4.83;3.93;;;10.40;95.70;;;10.52;68.40;97543.81;4898100;28;124455;-86
2021/12/27 00:20:34;;;;;;;6.87;3.63;;;10.00;95.50;;;10.53;68.04;97548.19;4869217;28;124848;-87
2021/12/27 00:23:01;;;;;;;5.67;3.57;;;10.00;95.50;;;10.53;68.49;97546.25;4888754;28;118893;-88
2021/12/27 00:25:30;;;;;;;3.40;3.10;;;10.00;95.50;;;10.54;68.32;97539.56;4894899;28;118692;-86
2021/12/27 00:27:57;;;;;;;3.50;3.17;;;10.00;95.50;;;10.54;68.43;97547.06;4898823;28;124087;-86
2021/12/27 00:30:25;;;;;;;5.47;3.70;;;10.00;95.50;;;10.53;68.39;97550.94;4893604;28;124158;-87
2021/12/27 00:33:29;;;;;;;4.50;3.63;;;10.00;95.50;;;10.52;68.19;97547.38;4875741;28;119190;-86
2021/12/27 00:35:58;;;;;;;4.57;3.20;;;10.00;95.50;;;10.49;68.31;97539.78;4870309;28;118806;-86
2021/12/27 00:38:25;;;;;;;5.33;3.70;;;10.00;95.50;;;10.48;68.42;97535.44;4862348;28;123793;-87
2021/12/27 00:40:52;;;;;;;4.77;3.50;;;10.00;95.50;;;10.49;68.70;97534.28;4888193;28;123856;-87
2021/12/27 00:43:19;;;;;;;4.23;3.83;;;10.00;95.50;;;10.50;68.17;97533.09;4867195;28;119223;-87
2021/12/27 00:45:47;;;;;;;4.53;3.57;;;10.00;95.50;;;10.51;68.50;97539.47;4864338;28;119974;-86
2021/12/27 00:48:32;;;;;;;4.67;4.00;;;10.00;95.50;;;10.52;68.60;97533.59;4875791;28;123299;-86
2021/12/27 00:50:59;;;;;;;4.53;3.97;;;10.00;95.50;;;10.51;68.32;97536.69;4870327;28;124779;-87
2021/12/27 00:57:08;;;;;;;4.03;3.37;;;10.00;95.50;;;10.49;68.39;97542.56;4893258;28;118771;-87
2021/12/27 00:59:54;;;;;;;6.70;4.50;;;10.00;95.50;;;10.51;68.61;97542.22;4886205;28;124715;-87
2021/12/27 01:02:39;;;;;;;5.77;4.57;;;10.00;95.50;;;10.52;68.16;97541.88;4873439;28;122405;-87
2021/12/27 01:05:07;;;;;;;6.70;3.70;;;10.00;95.50;;;10.50;68.33;97533.09;4885698;28;119487;-88
2021/12/27 01:07:35;;;;;;;4.73;3.27;;;10.00;95.50;;;10.50;68.19;97535.88;4873653;28;118287;-87
2021/12/27 01:10:51;;;;;;;6.60;4.30;;;10.00;95.50;;;10.49;68.06;97534.28;4893007;28;124816;-87
2021/12/27 01:15:51;;;;;;;4.67;4.20;;;9.90;95.80;;;10.42;68.44;97531.25;4886662;28;119566;-87
2021/12/27 01:18:19;;;;;;;7.33;4.27;;;10.00;95.30;;;10.41;68.42;97535.19;4873798;28;118689;-88
2021/12/27 01:20:47;;;;;;;4.70;4.03;;;9.90;95.80;;;10.42;67.94;97535.97;4874925;28;123105;-86
2021/12/27 01:23:33;;;;;;;6.40;4.40;;;9.90;95.80;;;10.42;68.35;97531.25;4888334;28;124190;-87
2021/12/27 01:26:01;;;;;;;5.43;4.07;;;9.90;95.70;;;10.42;68.11;97535.97;4889609;28;119177;-85
2021/12/27 01:28:27;;;;;;;5.47;3.87;;;10.10;95.40;;;10.42;68.13;97536.78;4887026;28;118019;-87
2021/12/27 01:31:13;;;;;;;5.03;3.90;;;9.90;95.70;;;10.43;67.85;97532.88;4882120;28;123555;-87
2021/12/27 01:33:43;;;;;;;5.00;4.40;;;9.90;95.70;;;10.43;67.89;97538.41;4884381;28;124454;-87
2021/12/27 01:36:11;;;;;;;6.40;4.87;;;9.90;95.70;;;10.42;67.76;97534.03;4884533;28;119354;-87
2021/12/27 01:38:57;;;;;;;6.67;4.33;;;10.00;95.20;;;10.40;67.93;97536.34;4889552;28;119349;-87
2021/12/27 01:41:23;;;;;;;6.63;5.33;;;9.90;95.60;;;10.39;68.36;97535.50;4863198;28;123325;-85
2021/12/27 01:44:13;;;;;;;5.40;4.53;;;9.90;95.60;;;10.39;68.07;97545.75;4873223;28;123115;-87
2021/12/27 01:46:58;;;;;;;6.00;4.07;;;9.90;95.60;;;10.35;67.65;97547.59;4883764;28;119760;-87
2021/12/27 01:49:24;;;;;;;5.87;4.90;;;9.90;95.60;;;10.28;68.20;97548.13;4879602;28;119113;-86
2021/12/27 01:52:11;;;;;;;6.23;4.33;;;9.80;95.50;;;10.26;67.96;97544.06;4870925;28;123479;-87
2021/12/27 01:54:39;;;;;;;9.23;5.33;;;9.80;95.50;;;10.25;68.25;97545.25;4872585;28;123833;-87
2021/12/27 01:57:26;;;;;;;5.93;4.43;;;9.80;95.50;;;10.25;67.96;97543.28;4874055;28;120156;-87
2021/12/27 01:59:54;;;;;;;4.90;4.40;;;9.80;95.50;;;10.24;67.91;97546.41;4887322;28;119175;-86
2021/12/27 02:02:22;;;;;;;7.30;5.10;;;9.80;95.50;;;10.24;67.79;97544.44;4871988;28;123320;-86
2021/12/27 02:04:49;;;;;;;5.00;4.27;;;9.80;95.50;;;10.24;68.16;97540.88;4888782;28;123768;-86
2021/12/27 02:07:16;;;;;;;7.20;5.30;;;9.80;95.50;;;10.22;68.04;97543.97;4888970;28;118909;-86
2021/12/27 02:10:02;;;;;;;7.03;5.00;;;9.80;95.50;;;10.22;67.55;97540.41;4886777;28;118978;-85
2021/12/27 02:12:31;;;;;;;7.70;5.17;;;9.70;95.50;;;10.20;67.83;97542.69;4860242;28;123628;-87
2021/12/27 02:14:59;;;;;;;4.60;4.10;;;9.70;95.50;;;10.16;67.82;97535.09;4870542;28;123207;-85
2021/12/27 02:17:27;;;;;;;6.70;4.97;;;9.70;95.50;;;10.14;67.38;97526.34;4867812;28;119587;-86
2021/12/27 02:19:54;;;;;;;8.03;5.00;;;9.70;95.80;;;10.14;67.64;97525.53;4881549;28;118154;-87
2021/12/27 02:22:23;;;;;;;6.30;4.77;;;9.70;95.50;;;10.14;68.15;97520.03;4881088;28;124961;-86
2021/12/27 02:24:51;;;;;;;6.97;5.00;;;9.70;95.50;;;10.10;67.98;97522.66;4885306;28;123824;-85
2021/12/27 02:27:18;;;;;;;7.03;4.80;;;9.70;95.40;;;10.10;68.08;97530.13;4878686;28;119380;-87
2021/12/27 02:29:47;;;;;;;5.03;4.10;;;9.70;95.40;;;10.06;67.63;97535.53;4887275;28;117799;-87
2021/12/27 02:32:15;;;;;;;9.23;5.10;;;9.60;95.40;;;10.06;67.79;97518.16;4873154;28;124097;-86
2021/12/27 02:35:01;;;;;;;7.43;5.10;;;9.60;95.40;;;10.07;68.22;97515.03;4873621;28;122775;-84
2021/12/27 02:37:28;;;;;;;5.47;4.80;;;9.60;95.40;;;10.07;67.67;97515.03;4879924;28;119976;-86
2021/12/27 02:39:56;;;;;;;5.47;4.50;;;9.60;95.40;;;10.07;67.93;97509.53;4874861;28;118054;-87
2021/12/27 02:42:24;;;;;;;6.07;4.40;;;9.60;95.40;;;10.09;67.67;97501.72;4880025;28;123330;-86
2021/12/27 02:44:51;;;;;;;5.07;4.57;;;9.60;95.40;;;10.12;67.93;97516.78;4883994;28;122884;-86
2021/12/27 02:47:17;;;;;;;7.93;5.17;;;9.70;95.50;;;10.15;67.83;97516.94;4883366;28;120390;-85
2021/12/27 02:49:44;;;;;;;5.00;4.50;;;9.60;95.40;;;10.15;67.85;97510.59;4885272;28;118495;-87
2021/12/27 02:52:10;;;;;;;5.60;3.90;;;9.60;95.60;;;10.16;67.39;97506.69;4856341;28;123315;-87
2021/12/27 02:54:41;;;;;;;5.47;4.43;;;9.60;95.30;;;10.16;67.36;97509.47;4882656;28;122154;-87
2021/12/27 02:57:26;;;;;;;7.93;5.07;;;9.60;95.30;;;10.15;67.67;97500.38;4877109;28;118805;-86
2021/12/27 02:59:57;;;;;;;6.23;4.53;;;9.60;95.30;;;10.15;67.82;97505.06;4866965;28;117122;-86
2021/12/27 03:02:24;;;;;;;5.13;3.90;;;9.60;95.30;;;10.16;67.83;97518.53;4869657;28;124044;-86
2021/12/27 03:04:52;;;;;;;5.40;4.47;;;9.60;95.30;;;10.17;67.77;97509.09;4859592;28;123196;-86
2021/12/27 03:07:18;;;;;;;6.77;4.17;;;9.70;95.30;;;10.17;67.52;97506.34;4884839;28;119222;-87
2021/12/27 03:09:47;;;;;;;5.17;4.20;;;9.70;95.30;;;10.15;67.18;97497.63;4875367;28;118861;-86
2021/12/27 03:12:13;;;;;;;4.07;3.67;;;9.60;95.20;;;10.15;67.70;97499.53;4886765;28;123833;-85
2021/12/27 03:14:41;;;;;;;5.40;4.30;;;9.70;95.30;;;10.17;67.41;97503.56;4877993;28;123137;-87
2021/12/27 03:17:07;;;;;;;4.80;3.70;;;9.60;95.20;;;10.16;67.33;97501.97;4890459;28;118144;-86
2021/12/27 03:19:34;;;;;;;5.60;4.10;;;9.70;95.20;;;10.14;67.12;97497.94;4881778;28;119145;-86
2021/12/27 03:22:00;;;;;;;5.13;4.23;;;9.60;95.20;;;10.11;67.41;97504.16;4886887;28;124058;-86
2021/12/27 03:24:26;;;;;;;5.10;4.00;;;9.70;95.20;;;10.10;67.24;97491.47;4880354;28;123742;-86
2021/12/27 03:27:13;;;;;;;4.43;3.33;;;9.60;95.20;;;10.11;67.09;97501.38;4889095;28;118380;-85
2021/12/27 03:29:40;;;;;;;5.47;3.80;;;9.60;95.20;;;10.09;67.45;97495.41;4889999;28;119018;-84
2021/12/27 03:32:09;;;;;;;4.30;3.40;;;9.60;95.20;;;10.08;67.38;97497.34;4886048;28;124129;-86
2021/12/27 03:34:41;;;;;;;3.23;2.93;;;9.60;95.10;;;10.07;67.23;97498.50;4886623;28;123982;-86
2021/12/27 03:37:31;;;;;;;3.60;3.27;;;9.60;95.20;;;10.09;67.34;97485.16;4868860;28;119283;-86
2021/12/27 03:39:57;;;;;;;4.23;3.60;;;9.60;95.20;;;10.05;66.98;97489.78;4885201;28;119758;-86
2021/12/27 03:42:50;;;;;;;3.43;3.13;;;9.60;95.10;;;10.08;67.28;97486.31;4848897;28;123858;-86
2021/12/27 03:45:23;;;;;;;3.50;3.20;;;9.60;95.10;;;10.06;67.07;97483.09;4859547;28;123348;-86
2021/12/27 03:48:28;;;;;;;5.67;3.57;;;9.60;95.10;;;10.05;67.08;97487.00;4840828;28;118149;-86
2021/12/27 03:51:13;;;;;;;4.77;3.50;;;9.60;95.10;;;10.05;67.71;97477.94;4831533;29;118657;-86
2021/12/27 03:53:41;;;;;;;3.90;3.27;;;9.60;95.10;;;10.04;66.99;97476.28;4844302;28;124022;-84
2021/12/27 03:56:10;;;;;;;3.40;3.10;;;9.60;95.10;;;10.05;67.28;97472.41;4842483;28;123959;-87
2021/12/27 03:59:23;;;;;;;3.70;2.70;;;9.60;95.10;;;10.07;66.91;97470.88;4854130;28;118390;-86
2021/12/27 04:01:50;;;;;;;4.87;2.50;;;9.60;95.10;;;10.07;67.11;97470.09;4846803;29;117884;-86
2021/12/27 04:04:17;;;;;;;3.20;2.90;;;9.60;95.10;;;10.06;66.87;97469.28;4841613;29;123122;-87
2021/12/27 04:07:03;;;;;;;3.07;2.77;;;9.60;95.00;;;10.10;66.92;97464.72;4851290;28;123665;-85
2021/12/27 04:09:49;;;;;;;3.27;2.83;;;9.60;95.00;;;10.11;66.96;97471.03;4817570;29;119003;-86
2021/12/27 04:12:16;;;;;;;3.07;2.30;;;9.60;95.00;;;10.12;66.99;97467.91;4833678;29;118086;-86
2021/12/27 04:15:06;;;;;;;2.70;2.50;;;9.60;95.00;;;10.15;67.07;97470.00;4887672;28;124237;-86
2021/12/27 04:17:34;;;;;;;3.33;2.70;;;9.60;95.00;;;10.17;66.80;97477.94;4867161;28;123499;-86
2021/12/27 04:20:21;;;;;;;2.83;2.33;;;9.60;95.00;;;10.21;66.80;97475.28;4869702;28;119301;-84
2021/12/27 04:22:50;;;;;;;3.27;2.67;;;9.70;95.00;;;10.19;66.59;97472.88;4864968;28;118204;-85
2021/12/27 04:25:21;;;;;;;3.30;2.70;;;9.70;95.00;;;10.20;66.72;97463.44;4870663;28;124088;-87
2021/12/27 04:27:55;;;;;;;3.23;2.07;;;9.70;94.90;;;10.23;66.70;97479.31;4880262;28;123953;-85
2021/12/27 04:30:40;;;;;;;2.57;2.23;;;9.90;95.00;;;10.24;66.78;97466.34;4872255;28;119395;-83
2021/12/27 04:33:27;;;;;;;2.40;2.20;;;9.70;94.90;;;10.22;66.69;97471.41;4885257;28;119061;-85
2021/12/27 04:35:54;;;;;;;3.03;2.53;;;9.70;94.90;;;10.18;66.52;97469.31;4870632;28;124296;-85
2021/12/27 04:38:21;;;;;;;4.10;2.33;;;9.70;94.80;;;10.20;66.72;97473.69;4872687;28;124580;-86
2021/12/27 04:40:51;;;;;;;2.40;2.20;;;9.70;94.80;;;10.18;66.57;97474.84;4866398;28;118333;-86
2021/12/27 04:43:36;;;;;;;2.90;2.30;;;9.70;94.80;;;10.22;66.25;97476.91;4860117;28;119339;-86
2021/12/27 04:46:06;;;;;;;2.63;2.00;;;9.70;94.80;;;10.17;66.35;97470.47;4865580;28;123367;-86
2021/12/27 04:48:33;;;;;;;3.00;2.47;;;9.70;94.70;;;10.17;66.31;97475.19;4860485;28;125546;-86
2021/12/27 04:51:20;;;;;;;2.07;1.90;;;9.70;94.70;;;10.18;66.07;97472.09;4868803;28;117496;-85
2021/12/27 04:53:50;;;;;;;3.53;2.60;;;9.70;94.70;;;10.15;66.50;97472.78;4865469;28;119437;-85
2021/12/27 04:56:18;;;;;;;2.47;2.07;;;9.60;94.60;;;10.14;66.32;97468.38;4854719;28;122025;-85
2021/12/27 04:58:46;;;;;;;2.17;1.90;;;9.70;94.60;;;10.14;66.48;97465.63;4870145;28;124127;-85
2021/12/27 05:01:14;;;;;;;2.60;2.30;;;9.60;94.60;;;10.14;66.12;97460.09;4871112;28;118882;-87
2021/12/27 05:03:42;;;;;;;3.10;2.43;;;9.60;94.60;;;10.15;66.38;97456.22;4871743;28;118929;-85
2021/12/27 05:06:10;;;;;;;2.37;2.03;;;9.60;94.60;;;10.15;66.01;97452.63;4864599;28;124009;-82
2021/12/27 05:08:36;;;;;;;2.67;2.10;;;9.70;94.60;;;10.17;66.11;97464.94;4908676;28;122258;-83
2021/12/27 05:11:03;;;;;;;1.90;1.50;;;9.60;94.50;;;10.18;66.21;97458.28;4886279;28;120107;-81
2021/12/27 05:13:31;;;;;;;3.03;1.97;;;9.70;94.60;;;10.18;66.28;97463.81;4887803;28;119491;-87
2021/12/27 05:16:00;;;;;;;2.37;2.07;;;9.70;94.50;;;10.18;65.96;97469.31;4884146;28;122153;-86
2021/12/27 05:18:27;;;;;;;2.60;2.20;;;9.70;94.50;;;10.20;65.80;97457.13;4912127;28;122710;-87
2021/12/27 05:20:54;;;;;;;2.03;1.70;;;9.70;94.50;;;10.18;66.06;97447.25;4892544;28;120500;-86
2021/12/27 05:23:20;;;;;;;3.97;1.73;;;9.70;94.50;;;10.18;66.03;97438.97;4887315;28;119203;-87
2021/12/27 05:26:07;;;;;;;3.30;2.50;;;9.80;94.50;;;10.18;65.98;97450.00;4865856;28;124245;-87
2021/12/27 05:28:34;;;;;;;2.40;1.77;;;9.70;94.40;;;10.18;65.92;97443.66;4885683;28;122765;-86
2021/12/27 05:31:03;;;;;;;2.00;1.80;;;9.70;94.40;;;10.19;65.76;97445.28;4873310;28;118939;-86
2021/12/27 05:33:51;;;;;;;2.27;1.73;;;9.70;94.40;;;10.22;65.91;97443.78;4871613;28;118517;-86
2021/12/27 05:36:19;;;;;;;4.40;2.17;;;9.70;94.40;;;10.20;65.81;97440.56;4875870;28;124022;-86
2021/12/27 05:38:47;;;;;;;2.53;1.80;;;9.70;94.30;;;10.20;65.75;97446.88;4875676;28;122070;-87
2021/12/27 05:41:33;;;;;;;1.67;1.57;;;9.70;94.30;;;10.22;65.64;97444.59;4876959;28;118374;-85
2021/12/27 05:44:02;;;;;;;1.73;1.63;;;9.70;94.30;;;10.21;65.91;97447.69;4864792;28;118849;-87
2021/12/27 05:46:48;;;;;;;1.90;1.80;;;9.70;94.30;;;10.22;65.76;97452.06;4880934;28;123936;-87
2021/12/27 05:49:33;;;;;;;2.93;2.23;;;9.70;94.30;;;10.23;65.60;97442.63;4863121;28;122893;-87
2021/12/27 05:52:02;;;;;;;1.67;1.57;;;9.70;94.30;;;10.22;65.63;97438.28;4878165;28;119073;-87
2021/12/27 05:54:30;;;;;;;2.90;2.50;;;9.70;94.30;;;10.23;65.82;97442.63;4872577;28;119155;-87
2021/12/27 05:56:57;;;;;;;2.33;1.73;;;9.70;94.20;;;10.23;65.77;97435.16;4873956;28;123997;-87
2021/12/27 05:59:23;;;;;;;2.37;1.97;;;9.70;94.30;;;10.24;65.71;97431.25;4873605;28;122823;-87
2021/12/27 06:01:51;;;;;;;2.50;2.03;;;9.70;94.20;;;10.26;65.49;97430.91;4875444;28;118546;-87
2021/12/27 06:04:17;;;;;;;2.30;1.90;;;9.70;94.20;;;10.27;65.63;97427.00;4864408;28;118678;-87
2021/12/27 06:06:43;;;;;;;2.27;1.83;;;9.70;94.20;;;10.30;65.67;97434.63;4882545;28;123985;-87
2021/12/27 06:09:11;;;;;;;2.43;2.00;;;9.70;94.20;;;10.30;65.23;97423.59;4858511;28;123857;-86
2021/12/27 06:12:15;;;;;;;2.00;1.60;;;9.80;94.20;;;10.29;65.67;97420.03;4861554;28;120874;-87
2021/12/27 06:14:41;;;;;;;1.70;1.60;;;9.80;94.20;;;10.29;65.56;97421.97;4866168;28;119389;-83
2021/12/27 06:17:10;;;;;;;2.20;1.97;;;9.80;94.20;;;10.29;65.37;97421.97;4847537;28;122577;-86
2021/12/27 06:20:23;;;;;;;2.50;2.17;;;9.80;94.20;;;10.29;65.33;97417.25;4857514;28;123719;-86
2021/12/27 06:22:56;;;;;;;1.90;1.80;;;9.80;94.20;;;10.29;65.51;97422.78;4867909;28;119312;-87
2021/12/27 06:25:25;;;;;;;2.53;1.80;;;9.80;94.20;;;10.29;65.41;97427.47;4870073;28;120004;-87
2021/12/27 06:27:52;;;;;;;2.07;1.80;;;9.80;94.20;;;10.29;65.47;97419.19;4864154;28;124026;-86
2021/12/27 06:30:21;;;;;;;2.07;1.73;;;9.80;94.10;;;10.29;65.05;97416.44;4846232;29;123787;-86
2021/12/27 06:32:49;;;;;;;1.90;1.80;;;9.80;94.10;;;10.28;65.59;97420.34;4867560;28;118250;-87
2021/12/27 06:35:19;;;;;;;1.80;1.70;;;9.80;94.10;;;10.29;65.19;97419.19;4869833;28;117920;-88
2021/12/27 06:38:24;;;;;;;2.20;2.00;;;9.80;94.10;;;10.28;65.47;97428.63;4863158;28;124423;-86
2021/12/27 06:41:09;;;;;;;2.30;2.03;;;9.70;94.00;;;10.26;65.08;97420.69;4853630;28;124389;-87
2021/12/27 06:43:38;;;;;;;2.70;1.60;;;9.80;94.10;;;10.24;65.27;97419.44;4865798;28;118960;-86
2021/12/27 06:46:41;;;;;;;2.80;2.00;;;9.80;94.10;;;10.23;65.49;97415.03;4871080;28;117944;-86
2021/12/27 06:49:09;;;;;;;3.70;2.90;;;9.70;94.00;;;10.21;65.23;97417.31;4872888;28;123041;-87
2021/12/27 06:52:13;;;;;;;11.57;5.23;;;9.10;93.80;;;10.20;65.42;97413.75;4852523;28;124562;-87
2021/12/27 06:54:42;;;;;;;6.87;4.40;;;9.70;94.00;;;10.17;65.19;97411.69;4872177;28;119372;-86
2021/12/27 06:57:10;;;;;;;7.13;4.27;;;9.70;94.00;;;10.14;65.39;97404.91;4873121;28;119214;-86
2021/12/27 06:59:38;;;;;;;3.67;3.17;;;9.70;94.00;;;10.11;65.54;97413.88;4855899;28;122249;-86
2021/12/27 07:02:05;;;;;;;5.00;3.00;;;9.60;94.00;;;10.10;65.45;97414.22;4846134;28;122019;-87
2021/12/27 07:04:32;;;;;;;6.47;3.37;;;9.60;94.00;;;10.07;65.59;97415.69;4856561;28;120021;-86
2021/12/27 07:06:59;;;;;;;3.03;2.40;;;9.60;94.00;;;10.07;65.74;97412.16;4869554;28;119851;-86
2021/12/27 07:09:26;;;;;;;2.57;2.30;;;9.60;94.00;;;10.05;65.48;97415.25;4870844;28;123808;-87
2021/12/27 07:11:53;;;;;;;2.57;2.37;;;9.60;94.00;;;10.02;65.34;97418.72;4872182;28;122078;-87
2021/12/27 07:14:20;;;;;;;6.03;2.67;;;9.60;94.00;;;10.01;65.74;97421.81;4870344;28;119469;-86
2021/12/27 07:16:47;;;;;;;3.30;1.90;;;9.50;94.00;;;9.99;65.49;97427.66;4871969;28;118746;-86
2021/12/27 07:19:34;;;;;;;3.07;2.00;;;9.50;94.00;;;9.98;65.40;97416.97;4853709;28;124071;-87
2021/12/27 07:22:03;;;;;;;2.63;2.43;;;9.50;94.00;;;9.95;65.37;97413.75;4869976;28;123953;-87
2021/12/27 07:24:31;;;;;;;2.40;2.00;;;9.50;94.00;;;9.95;65.65;97426.75;4856784;28;119058;-87
2021/12/27 07:26:57;;;;;;;2.80;2.10;;;9.50;94.00;;;9.93;65.28;97420.75;4850486;28;118780;-85
2021/12/27 07:29:24;;;;;;;2.20;2.00;;;9.50;94.00;;;9.93;65.72;97421.56;4851125;28;123943;-85
2021/12/27 07:31:51;;;;;;;2.23;2.03;;;9.50;94.00;;;9.93;65.63;97415.22;4866474;28;124370;-86
2021/12/27 07:34:19;;;;;;;2.10;1.90;;;9.40;94.00;;;9.92;65.68;97430.19;4851599;28;120317;-87
2021/12/27 07:36:55;;;;;;;2.30;2.10;;;9.50;94.00;;;9.94;65.47;97416.84;4848051;28;118226;-86
2021/12/27 07:39:23;;;;;;;2.23;2.03;;;9.40;93.90;;;9.92;65.19;97424.66;4851345;28;123347;-87
2021/12/27 07:42:09;;;;;;;3.60;2.50;;;9.40;94.00;;;9.94;65.37;97422.38;4850613;28;121779;-85
2021/12/27 07:44:37;;;;;;;4.23;2.20;;;9.40;93.90;;;9.92;65.58;97424.66;4869724;28;119323;-87
2021/12/27 07:47:04;;;;;;;3.40;2.70;;;9.40;94.00;;;9.91;65.45;97410.06;4853066;28;119348;-86
2021/12/27 07:49:31;;;;;;;2.33;2.07;;;9.40;94.00;;;9.92;65.38;97414.44;4865560;28;124046;-86
2021/12/27 07:52:01;;;;;;;3.20;2.30;;;9.40;94.00;;;9.91;65.46;97410.06;4838412;29;123064;-86
2021/12/27 07:54:27;;;;;;;3.10;2.10;;;9.40;94.00;;;9.91;65.74;97418.34;4859767;28;120943;-86
2021/12/27 07:56:54;;;;;;;2.40;1.80;;;9.40;94.00;;;9.91;65.48;97412.00;4868030;28;119878;-86
2021/12/27 07:59:58;;;;;;;2.40;2.20;;;9.40;93.90;;;9.90;65.26;97410.41;4867241;28;123439;-87
2021/12/27 08:02:26;;;;;;;2.67;2.17;;;9.40;93.90;;;9.88;65.25;97413.50;4867549;28;123892;-85
2021/12/27 08:05:31;;;;;;;2.90;2.57;;;9.50;94.00;;;9.89;65.17;97415.13;4871894;28;119954;-91
2021/12/27 08:07:58;;;;;;;2.70;2.13;;;9.40;93.90;;;9.89;65.24;97400.53;4893011;28;118569;-90
2021/12/27 08:10:43;;;;;;;2.33;2.13;;;9.40;93.90;;;9.91;65.41;97400.97;4875052;28;122586;-90
2021/12/27 08:13:30;;;;;;;2.53;2.33;;;9.40;93.90;;;9.93;65.12;97404.19;4870358;28;123294;-88
2021/12/27 08:16:17;;;;;;;2.13;1.93;;;9.40;93.90;;;9.93;65.18;97405.00;4866517;28;119289;-88
2021/12/27 08:18:46;;;;;;;4.20;2.50;;;9.40;93.90;;;9.94;65.08;97408.59;4856864;28;118376;-89
2021/12/27 08:21:16;;;;;;;2.57;2.20;;;9.50;93.90;;;9.92;65.07;97414.44;4864370;28;124528;-87
2021/12/27 08:23:43;;;;;;;2.40;2.20;;;9.40;93.90;;;9.92;65.50;97411.66;4872180;28;123892;-86
2021/12/27 08:26:29;;;;;;;3.60;2.43;;;9.40;93.80;;;9.92;65.07;97414.44;4855248;28;118232;-87
2021/12/27 08:28:59;;;;;;;2.40;2.20;;;9.40;93.80;;;9.93;65.44;97409.72;4875064;28;118435;-86
2021/12/27 08:31:45;;;;;;;2.53;2.33;;;9.40;93.90;;;9.97;65.21;97410.66;4870451;28;123870;-87
2021/12/27 08:34:13;;;;;;;2.17;1.97;;;9.40;93.90;;;10.00;65.10;97415.47;4854507;28;123670;-88
2021/12/27 08:36:39;;;;;;;4.20;2.37;;;9.50;93.90;;;10.03;65.04;97423.06;4869007;28;119247;-87
2021/12/27 08:39:43;;;;;;;3.27;2.37;;;9.60;94.00;;;10.07;65.20;97414.91;4865210;28;119462;-87
2021/12/27 08:42:10;;;;;;;2.50;1.90;;;9.50;93.90;;;10.09;65.17;97416.16;4858014;28;123475;-87
2021/12/27 08:44:38;;;;;;;2.30;2.10;;;9.50;93.90;;;10.13;64.84;97408.81;4849157;28;123150;-88
2021/12/27 08:47:06;;;;;;;2.10;1.90;;;9.60;93.90;;;10.18;64.67;97413.28;4854202;28;119471;-88
2021/12/27 08:49:35;;;;;;;2.80;2.47;;;9.60;94.20;;;10.23;64.96;97417.78;4871784;28;120077;-88
2021/12/27 08:52:02;;;;;;;3.60;2.57;;;9.60;93.90;;;10.27;64.93;97407.69;4848590;28;124086;-88
2021/12/27 08:55:06;;;;;;;3.07;2.33;;;9.70;93.90;;;10.33;64.73;97406.34;4864641;28;123021;-88
2021/12/27 08:58:10;;;;;;;3.83;2.80;;;9.70;93.90;;;10.37;64.56;97407.25;4853498;28;117776;-86
2021/12/27 09:00:37;;;;;;;2.10;1.90;;;9.80;93.90;;;10.39;64.64;97402.19;4865899;28;118995;-88
2021/12/27 09:03:06;;;;;;;2.57;2.10;;;9.80;93.90;;;10.42;64.86;97400.69;4866333;28;123946;-89
2021/12/27 09:05:35;;;;;;;2.70;2.40;;;9.80;93.80;;;10.45;64.57;97392.53;4854271;28;123045;-87
2021/12/27 09:08:01;;;;;;;4.57;3.20;;;9.90;93.80;;;10.45;64.67;97400.81;4868686;28;119421;-86
2021/12/27 09:10:28;;;;;;;3.00;2.50;;;9.90;93.70;;;10.45;64.19;97392.53;4867010;28;119023;-87
2021/12/27 09:12:54;;;;;;;3.10;2.80;;;9.90;93.60;;;10.46;64.15;97396.91;4862914;28;124553;-88
2021/12/27 09:16:17;;;;;;;2.93;2.57;;;9.90;93.60;;;10.47;64.22;97394.94;4862779;28;124183;-87
2021/12/27 09:18:44;;;;;;;2.77;2.40;;;9.90;93.50;;;10.43;63.88;97397.59;4863200;28;119414;-88
2021/12/27 09:21:12;;;;;;;3.40;3.10;;;9.90;93.40;;;10.44;63.87;97399.19;4864558;28;119431;-89
2021/12/27 09:23:57;;;;;;;2.87;2.40;;;9.90;93.40;;;10.48;63.89;97402.09;4865856;28;124071;-86
2021/12/27 09:26:25;;;;;;;2.90;2.60;;;9.90;93.40;;;10.48;63.88;97408.41;4869232;28;123877;-85
2021/12/27 09:29:49;;;;;;;2.77;2.53;;;10.70;93.30;;;10.47;63.73;97401.25;4861409;28;119389;-87
2021/12/27 09:32:16;;;;;;;4.40;3.00;;;10.00;92.90;;;10.47;63.94;97401.25;4868728;28;119109;-87
2021/12/27 09:34:42;;;;;;;5.27;2.97;;;10.00;92.90;;;10.47;63.84;97405.97;4859689;28;124043;-86
2021/12/27 09:37:09;;;;;;;3.50;3.03;;;9.90;93.30;;;10.46;63.80;97399.66;4868257;28;121809;-88
2021/12/27 09:39:38;;;;;;;3.47;2.83;;;10.00;92.70;;;10.46;63.76;97394.13;4865981;28;119464;-88
2021/12/27 09:42:42;;;;;;;3.23;2.90;;;10.60;93.00;;;10.46;64.02;97399.66;4864478;28;118997;-88
2021/12/27 09:45:10;;;;;;;3.63;3.00;;;10.00;92.70;;;10.42;64.07;97387.69;4868102;28;123178;-87
2021/12/27 09:47:37;;;;;;;3.13;2.57;;;10.00;92.70;;;10.43;63.92;97380.22;4868146;28;122941;-88
2021/12/27 09:50:09;;;;;;;3.90;2.73;;;10.00;92.70;;;10.45;63.80;97381.50;4868296;28;119433;-88
2021/12/27 09:52:36;;;;;;;3.43;2.70;;;10.00;92.80;;;10.48;64.29;97377.22;4859564;28;118922;-88
2021/12/27 09:55:04;;;;;;;4.23;2.57;;;10.00;92.80;;;10.50;63.98;97384.00;4846882;29;124415;-88
2021/12/27 09:57:35;;;;;;;3.13;2.43;;;10.00;92.80;;;10.55;63.52;97381.00;4867126;28;122714;-88
2021/12/27 10:00:06;;;;;;;3.20;2.67;;;10.00;92.70;;;10.57;63.74;97384.22;4853030;28;119188;-89
2021/12/27 10:02:39;;;;;;;4.30;3.00;;;10.10;92.80;;;10.64;63.95;97377.31;4871821;28;118428;-86
2021/12/27 10:05:07;;;;;;;3.23;2.77;;;10.10;92.80;;;10.70;63.61;97375.94;4860617;28;123150;-89
2021/12/27 10:07:41;;;;;;;4.60;3.20;;;10.20;92.90;;;10.76;63.91;97369.81;4861981;28;124431;-88
2021/12/27 10:10:10;;;;;;;4.60;3.10;;;10.30;92.90;;;10.81;63.71;97357.72;4851545;28;119233;-85
2021/12/27 10:12:37;;;;;;;2.70;2.23;;;10.30;92.90;;;10.86;63.70;97356.66;4858052;28;119081;-86
2021/12/27 10:15:35;;;;;;;2.67;2.47;;;10.30;92.80;;;10.93;63.77;97345.81;4869901;28;124295;-88
2021/12/27 10:18:14;;;;;;;2.47;2.27;;;10.40;92.80;;;10.99;63.55;97345.22;4871891;28;123943;-88
2021/12/27 10:20:45;;;;;;;2.40;2.20;;;10.40;92.80;;;11.05;63.13;97348.53;4874570;28;118555;-89
2021/12/27 10:23:13;;;;;;;3.90;2.33;;;10.40;92.70;;;11.08;63.50;97344.28;4873980;28;118796;-88
2021/12/27 10:25:39;;;;;;;3.20;2.37;;;10.50;92.70;;;11.15;63.15;97353.56;4856358;28;123154;-88
2021/12/27 10:28:06;;;;;;;2.00;1.63;;;10.60;92.70;;;11.23;62.66;97341.56;4871932;28;123479;-88
2021/12/27 10:30:40;;;;;;;2.40;2.20;;;10.60;92.70;;;11.33;62.55;97337.47;4871724;28;120132;-88
2021/12/27 10:33:18;;;;;;;2.10;1.80;;;10.70;92.70;;;11.42;62.58;97337.31;4854905;28;119114;-87
2021/12/27 10:35:56;;;;;;;2.37;1.83;;;10.80;92.60;;;11.53;62.12;97332.06;4855605;28;124256;-87
2021/12/27 10:38:32;;;;;;;2.33;2.10;;;10.80;92.50;;;11.58;61.89;97327.09;4865638;28;122949;-88
2021/12/27 10:41:04;;;;;;;1.80;1.67;;;10.90;92.50;;;11.66;62.11;97325.28;4848901;28;119400;-87
2021/12/27 10:43:54;;;;;;;2.80;2.30;;;11.00;92.60;;;11.76;61.71;97319.22;4871454;28;119263;-87
2021/12/27 10:46:22;;;;;;;2.17;1.77;;;11.10;92.30;;;11.82;61.57;97315.06;4852810;28;123539;-88
2021/12/27 10:49:07;;;;;;;2.67;2.00;;;11.20;92.30;;;11.90;61.35;97322.41;4856597;28;122947;-89
2021/12/27 10:51:33;;;;;;;2.57;2.37;;;11.20;92.10;;;11.97;61.01;97315.44;4872123;28;119073;-87